sensor_id;sensor_type;location;lat;lon;timestamp;P1;durP1;ratioP1;P2;durP2;ratioP2
54795;SDS011;40693;43.884;20.340;2022-07-10T00:01:18;3.33;;;1.40;;
54795;SDS011;40693;43.884;20.340;2022-07-10T00:03:44;3.08;;;1.70;;
54795;SDS011;40693;43.884;20.340;2022-07-10T00:06:10;5.25;;;2.72;;
54795;SDS011;40693;43.884;20.340;2022-07-10T00:08:36;4.82;;;1.90;;
54795;SDS011;40693;43.884;20.340;2022-07-10T00:11:02;3.85;;;2.63;;
54795;SDS011;40693;43.884;20.340;2022-07-10T00:13:27;6.38;;;2.80;;
54795;SDS011;40693;43.884;20.340;2022-07-10T00:15:53;6.57;;;2.50;;
54795;SDS011;40693;43.884;20.340;2022-07-10T00:18:19;5.28;;;2.65;;
54795;SDS011;40693;43.884;20.340;2022-07-10T00:20:45;3.08;;;2.22;;
54795;SDS011;40693;43.884;20.340;2022-07-10T00:23:11;3.22;;;2.03;;
54795;SDS011;40693;43.884;20.340;2022-07-10T00:25:36;4.25;;;2.30;;
54795;SDS011;40693;43.884;20.340;2022-07-10T00:28:02;6.30;;;2.28;;
54795;SDS011;40693;43.884;20.340;2022-07-10T00:30:29;3.47;;;2.08;;
54795;SDS011;40693;43.884;20.340;2022-07-10T00:32:55;3.72;;;2.00;;
54795;SDS011;40693;43.884;20.340;2022-07-10T00:35:20;4.40;;;1.90;;
54795;SDS011;40693;43.884;20.340;2022-07-10T00:37:46;4.15;;;2.47;;
54795;SDS011;40693;43.884;20.340;2022-07-10T00:40:12;5.63;;;2.40;;
54795;SDS011;40693;43.884;20.340;2022-07-10T00:42:38;4.38;;;2.38;;
54795;SDS011;40693;43.884;20.340;2022-07-10T00:45:03;3.80;;;2.45;;
54795;SDS011;40693;43.884;20.340;2022-07-10T00:47:30;2.88;;;2.22;;
54795;SDS011;40693;43.884;20.340;2022-07-10T00:49:55;6.88;;;2.47;;
54795;SDS011;40693;43.884;20.340;2022-07-10T00:52:21;4.20;;;2.08;;
54795;SDS011;40693;43.884;20.340;2022-07-10T00:54:48;5.18;;;2.75;;
54795;SDS011;40693;43.884;20.340;2022-07-10T00:57:17;5.13;;;2.58;;
54795;SDS011;40693;43.884;20.340;2022-07-10T00:59:44;3.63;;;1.92;;
54795;SDS011;40693;43.884;20.340;2022-07-10T01:02:10;3.05;;;1.88;;
54795;SDS011;40693;43.884;20.340;2022-07-10T01:04:37;3.10;;;2.08;;
54795;SDS011;40693;43.884;20.340;2022-07-10T01:07:04;3.72;;;2.03;;
54795;SDS011;40693;43.884;20.340;2022-07-10T01:09:30;3.95;;;1.88;;
54795;SDS011;40693;43.884;20.340;2022-07-10T01:11:56;7.22;;;2.80;;
54795;SDS011;40693;43.884;20.340;2022-07-10T01:14:26;4.43;;;1.98;;
54795;SDS011;40693;43.884;20.340;2022-07-10T01:16:53;3.83;;;1.98;;
54795;SDS011;40693;43.884;20.340;2022-07-10T01:19:19;2.60;;;1.80;;
54795;SDS011;40693;43.884;20.340;2022-07-10T01:21:45;3.60;;;2.03;;
54795;SDS011;40693;43.884;20.340;2022-07-10T01:24:11;2.65;;;2.00;;
54795;SDS011;40693;43.884;20.340;2022-07-10T01:26:37;3.83;;;2.28;;
54795;SDS011;40693;43.884;20.340;2022-07-10T01:29:08;3.55;;;2.00;;
54795;SDS011;40693;43.884;20.340;2022-07-10T01:31:35;9.43;;;2.42;;
54795;SDS011;40693;43.884;20.340;2022-07-10T01:34:01;6.88;;;2.33;;
54795;SDS011;40693;43.884;20.340;2022-07-10T01:36:30;4.85;;;2.20;;
54795;SDS011;40693;43.884;20.340;2022-07-10T01:38:56;3.38;;;1.88;;
54795;SDS011;40693;43.884;20.340;2022-07-10T01:41:22;4.68;;;2.40;;
54795;SDS011;40693;43.884;20.340;2022-07-10T01:43:48;3.97;;;2.10;;
54795;SDS011;40693;43.884;20.340;2022-07-10T01:46:15;4.90;;;2.17;;
54795;SDS011;40693;43.884;20.340;2022-07-10T01:48:41;4.45;;;2.33;;
54795;SDS011;40693;43.884;20.340;2022-07-10T01:51:08;3.85;;;2.40;;
54795;SDS011;40693;43.884;20.340;2022-07-10T01:53:35;3.38;;;1.92;;
54795;SDS011;40693;43.884;20.340;2022-07-10T01:56:06;3.67;;;2.25;;
54795;SDS011;40693;43.884;20.340;2022-07-10T01:58:33;5.87;;;2.07;;
54795;SDS011;40693;43.884;20.340;2022-07-10T02:01:00;5.22;;;2.33;;
54795;SDS011;40693;43.884;20.340;2022-07-10T02:03:26;5.00;;;1.98;;
54795;SDS011;40693;43.884;20.340;2022-07-10T02:06:10;3.72;;;1.95;;
54795;SDS011;40693;43.884;20.340;2022-07-10T02:08:36;4.28;;;1.70;;
54795;SDS011;40693;43.884;20.340;2022-07-10T02:11:02;5.38;;;2.30;;
54795;SDS011;40693;43.884;20.340;2022-07-10T02:13:28;2.80;;;1.73;;
54795;SDS011;40693;43.884;20.340;2022-07-10T02:15:54;3.67;;;1.98;;
54795;SDS011;40693;43.884;20.340;2022-07-10T02:18:21;4.85;;;2.40;;
54795;SDS011;40693;43.884;20.340;2022-07-10T02:20:47;5.60;;;2.42;;
54795;SDS011;40693;43.884;20.340;2022-07-10T02:23:13;4.00;;;2.45;;
54795;SDS011;40693;43.884;20.340;2022-07-10T02:25:39;3.55;;;2.60;;
54795;SDS011;40693;43.884;20.340;2022-07-10T02:28:05;3.65;;;1.67;;
54795;SDS011;40693;43.884;20.340;2022-07-10T02:30:32;3.60;;;2.22;;
54795;SDS011;40693;43.884;20.340;2022-07-10T02:32:58;4.35;;;2.10;;
54795;SDS011;40693;43.884;20.340;2022-07-10T02:35:24;4.68;;;2.10;;
54795;SDS011;40693;43.884;20.340;2022-07-10T02:37:49;8.88;;;2.83;;
54795;SDS011;40693;43.884;20.340;2022-07-10T02:40:15;5.00;;;2.42;;
54795;SDS011;40693;43.884;20.340;2022-07-10T02:42:41;2.88;;;2.08;;
54795;SDS011;40693;43.884;20.340;2022-07-10T02:45:07;3.95;;;2.85;;
54795;SDS011;40693;43.884;20.340;2022-07-10T02:47:33;4.35;;;2.50;;
54795;SDS011;40693;43.884;20.340;2022-07-10T02:49:59;6.22;;;2.40;;
54795;SDS011;40693;43.884;20.340;2022-07-10T02:52:25;3.92;;;2.33;;
54795;SDS011;40693;43.884;20.340;2022-07-10T02:54:51;4.13;;;2.40;;
54795;SDS011;40693;43.884;20.340;2022-07-10T02:57:17;6.22;;;2.35;;
54795;SDS011;40693;43.884;20.340;2022-07-10T02:59:43;4.63;;;2.40;;
54795;SDS011;40693;43.884;20.340;2022-07-10T03:02:08;5.03;;;2.17;;
54795;SDS011;40693;43.884;20.340;2022-07-10T03:04:34;5.88;;;2.25;;
54795;SDS011;40693;43.884;20.340;2022-07-10T03:07:00;4.78;;;2.47;;
54795;SDS011;40693;43.884;20.340;2022-07-10T03:09:26;4.55;;;2.42;;
54795;SDS011;40693;43.884;20.340;2022-07-10T03:11:52;4.03;;;2.47;;
54795;SDS011;40693;43.884;20.340;2022-07-10T03:14:18;6.60;;;2.20;;
54795;SDS011;40693;43.884;20.340;2022-07-10T03:16:44;2.97;;;1.95;;
54795;SDS011;40693;43.884;20.340;2022-07-10T03:19:09;3.58;;;2.42;;
54795;SDS011;40693;43.884;20.340;2022-07-10T03:21:35;5.15;;;2.80;;
54795;SDS011;40693;43.884;20.340;2022-07-10T03:24:01;9.00;;;2.35;;
54795;SDS011;40693;43.884;20.340;2022-07-10T03:26:27;5.10;;;2.20;;
54795;SDS011;40693;43.884;20.340;2022-07-10T03:28:54;4.85;;;2.17;;
54795;SDS011;40693;43.884;20.340;2022-07-10T03:31:20;5.65;;;2.47;;
54795;SDS011;40693;43.884;20.340;2022-07-10T03:33:46;2.97;;;2.25;;
54795;SDS011;40693;43.884;20.340;2022-07-10T03:36:12;4.32;;;2.83;;
54795;SDS011;40693;43.884;20.340;2022-07-10T03:38:41;4.45;;;2.30;;
54795;SDS011;40693;43.884;20.340;2022-07-10T03:41:07;4.57;;;2.67;;
54795;SDS011;40693;43.884;20.340;2022-07-10T03:43:32;7.07;;;2.55;;
54795;SDS011;40693;43.884;20.340;2022-07-10T03:45:58;7.53;;;2.40;;
54795;SDS011;40693;43.884;20.340;2022-07-10T03:48:24;6.57;;;3.20;;
54795;SDS011;40693;43.884;20.340;2022-07-10T03:50:53;5.60;;;2.85;;
54795;SDS011;40693;43.884;20.340;2022-07-10T03:53:18;3.03;;;2.22;;
54795;SDS011;40693;43.884;20.340;2022-07-10T03:55:44;4.22;;;2.70;;
54795;SDS011;40693;43.884;20.340;2022-07-10T03:58:10;8.30;;;3.42;;
54795;SDS011;40693;43.884;20.340;2022-07-10T04:00:36;6.88;;;2.13;;
54795;SDS011;40693;43.884;20.340;2022-07-10T04:03:04;4.75;;;2.55;;
54795;SDS011;40693;43.884;20.340;2022-07-10T04:05:31;7.32;;;2.60;;
54795;SDS011;40693;43.884;20.340;2022-07-10T04:07:57;3.55;;;2.25;;
54795;SDS011;40693;43.884;20.340;2022-07-10T04:10:24;4.28;;;2.40;;
54795;SDS011;40693;43.884;20.340;2022-07-10T04:12:51;5.18;;;2.33;;
54795;SDS011;40693;43.884;20.340;2022-07-10T04:15:17;4.40;;;2.30;;
54795;SDS011;40693;43.884;20.340;2022-07-10T04:17:43;5.47;;;2.30;;
54795;SDS011;40693;43.884;20.340;2022-07-10T04:20:09;5.63;;;2.03;;
54795;SDS011;40693;43.884;20.340;2022-07-10T04:22:35;4.57;;;2.67;;
54795;SDS011;40693;43.884;20.340;2022-07-10T04:25:01;3.28;;;2.10;;
54795;SDS011;40693;43.884;20.340;2022-07-10T04:27:28;5.03;;;2.70;;
54795;SDS011;40693;43.884;20.340;2022-07-10T04:29:53;3.65;;;2.15;;
54795;SDS011;40693;43.884;20.340;2022-07-10T04:32:19;7.95;;;2.55;;
54795;SDS011;40693;43.884;20.340;2022-07-10T04:34:45;7.28;;;2.75;;
54795;SDS011;40693;43.884;20.340;2022-07-10T04:37:11;4.90;;;3.25;;
54795;SDS011;40693;43.884;20.340;2022-07-10T04:39:37;3.00;;;2.20;;
54795;SDS011;40693;43.884;20.340;2022-07-10T04:42:04;3.97;;;2.72;;
54795;SDS011;40693;43.884;20.340;2022-07-10T04:44:30;4.72;;;2.67;;
54795;SDS011;40693;43.884;20.340;2022-07-10T04:46:56;3.78;;;2.40;;
54795;SDS011;40693;43.884;20.340;2022-07-10T04:49:22;6.35;;;2.85;;
54795;SDS011;40693;43.884;20.340;2022-07-10T04:51:47;4.22;;;2.63;;
54795;SDS011;40693;43.884;20.340;2022-07-10T04:54:13;5.15;;;2.80;;
54795;SDS011;40693;43.884;20.340;2022-07-10T04:56:39;5.35;;;3.38;;
54795;SDS011;40693;43.884;20.340;2022-07-10T04:59:05;9.43;;;2.80;;
54795;SDS011;40693;43.884;20.340;2022-07-10T05:01:31;4.40;;;2.63;;
54795;SDS011;40693;43.884;20.340;2022-07-10T05:03:56;5.82;;;2.70;;
54795;SDS011;40693;43.884;20.340;2022-07-10T05:06:22;4.57;;;2.60;;
54795;SDS011;40693;43.884;20.340;2022-07-10T05:08:48;4.93;;;2.47;;
54795;SDS011;40693;43.884;20.340;2022-07-10T05:11:14;7.95;;;2.95;;
54795;SDS011;40693;43.884;20.340;2022-07-10T05:13:41;4.05;;;2.55;;
54795;SDS011;40693;43.884;20.340;2022-07-10T05:16:10;3.03;;;2.40;;
54795;SDS011;40693;43.884;20.340;2022-07-10T05:18:36;3.70;;;2.72;;
54795;SDS011;40693;43.884;20.340;2022-07-10T05:21:01;4.15;;;2.38;;
54795;SDS011;40693;43.884;20.340;2022-07-10T05:23:27;4.85;;;2.78;;
54795;SDS011;40693;43.884;20.340;2022-07-10T05:25:53;4.30;;;2.58;;
54795;SDS011;40693;43.884;20.340;2022-07-10T05:28:19;3.55;;;2.28;;
54795;SDS011;40693;43.884;20.340;2022-07-10T05:30:44;3.63;;;2.50;;
54795;SDS011;40693;43.884;20.340;2022-07-10T05:33:10;5.70;;;2.70;;
54795;SDS011;40693;43.884;20.340;2022-07-10T05:35:36;3.05;;;2.35;;
54795;SDS011;40693;43.884;20.340;2022-07-10T05:38:03;3.67;;;2.35;;
54795;SDS011;40693;43.884;20.340;2022-07-10T05:40:28;3.80;;;2.47;;
54795;SDS011;40693;43.884;20.340;2022-07-10T05:42:54;3.40;;;2.25;;
54795;SDS011;40693;43.884;20.340;2022-07-10T05:45:20;4.85;;;2.53;;
54795;SDS011;40693;43.884;20.340;2022-07-10T05:47:45;4.50;;;1.98;;
54795;SDS011;40693;43.884;20.340;2022-07-10T05:50:11;6.07;;;2.50;;
54795;SDS011;40693;43.884;20.340;2022-07-10T05:52:37;4.93;;;3.33;;
54795;SDS011;40693;43.884;20.340;2022-07-10T05:55:03;3.97;;;2.88;;
54795;SDS011;40693;43.884;20.340;2022-07-10T05:57:30;3.22;;;2.05;;
54795;SDS011;40693;43.884;20.340;2022-07-10T05:59:59;7.35;;;3.33;;
54795;SDS011;40693;43.884;20.340;2022-07-10T06:02:25;4.82;;;2.42;;
54795;SDS011;40693;43.884;20.340;2022-07-10T06:04:51;4.03;;;2.13;;
54795;SDS011;40693;43.884;20.340;2022-07-10T06:07:17;3.60;;;2.03;;
54795;SDS011;40693;43.884;20.340;2022-07-10T06:09:43;6.05;;;2.88;;
54795;SDS011;40693;43.884;20.340;2022-07-10T06:12:09;5.35;;;2.42;;
54795;SDS011;40693;43.884;20.340;2022-07-10T06:14:35;5.43;;;2.40;;
54795;SDS011;40693;43.884;20.340;2022-07-10T06:17:01;3.90;;;2.45;;
54795;SDS011;40693;43.884;20.340;2022-07-10T06:19:27;5.07;;;2.75;;
54795;SDS011;40693;43.884;20.340;2022-07-10T06:21:52;3.65;;;2.83;;
54795;SDS011;40693;43.884;20.340;2022-07-10T06:24:36;7.88;;;2.70;;
54795;SDS011;40693;43.884;20.340;2022-07-10T06:27:03;4.25;;;2.15;;
54795;SDS011;40693;43.884;20.340;2022-07-10T06:29:29;4.05;;;2.40;;
54795;SDS011;40693;43.884;20.340;2022-07-10T06:31:54;2.55;;;2.00;;
54795;SDS011;40693;43.884;20.340;2022-07-10T06:34:20;2.83;;;2.00;;
54795;SDS011;40693;43.884;20.340;2022-07-10T06:36:46;5.13;;;2.47;;
54795;SDS011;40693;43.884;20.340;2022-07-10T06:39:12;2.75;;;1.90;;
54795;SDS011;40693;43.884;20.340;2022-07-10T06:41:37;4.43;;;2.38;;
54795;SDS011;40693;43.884;20.340;2022-07-10T06:44:04;2.95;;;2.25;;
54795;SDS011;40693;43.884;20.340;2022-07-10T06:46:30;4.40;;;2.25;;
54795;SDS011;40693;43.884;20.340;2022-07-10T06:48:56;2.45;;;1.90;;
54795;SDS011;40693;43.884;20.340;2022-07-10T06:51:22;3.30;;;1.98;;
54795;SDS011;40693;43.884;20.340;2022-07-10T06:53:48;6.72;;;3.10;;
54795;SDS011;40693;43.884;20.340;2022-07-10T06:56:14;5.28;;;2.28;;
54795;SDS011;40693;43.884;20.340;2022-07-10T06:58:41;2.97;;;2.08;;
54795;SDS011;40693;43.884;20.340;2022-07-10T07:01:07;4.07;;;2.10;;
54795;SDS011;40693;43.884;20.340;2022-07-10T07:03:32;4.35;;;1.90;;
54795;SDS011;40693;43.884;20.340;2022-07-10T07:05:58;9.55;;;2.42;;
54795;SDS011;40693;43.884;20.340;2022-07-10T07:08:24;8.27;;;2.38;;
54795;SDS011;40693;43.884;20.340;2022-07-10T07:10:50;3.05;;;2.00;;
54795;SDS011;40693;43.884;20.340;2022-07-10T07:13:15;4.95;;;2.28;;
54795;SDS011;40693;43.884;20.340;2022-07-10T07:15:41;3.72;;;2.25;;
54795;SDS011;40693;43.884;20.340;2022-07-10T07:18:11;3.53;;;2.10;;
54795;SDS011;40693;43.884;20.340;2022-07-10T07:20:41;6.88;;;2.20;;
54795;SDS011;40693;43.884;20.340;2022-07-10T07:23:25;4.28;;;2.20;;
54795;SDS011;40693;43.884;20.340;2022-07-10T07:25:51;3.10;;;2.28;;
54795;SDS011;40693;43.884;20.340;2022-07-10T07:28:17;3.83;;;1.90;;
54795;SDS011;40693;43.884;20.340;2022-07-10T07:30:45;4.50;;;1.90;;
54795;SDS011;40693;43.884;20.340;2022-07-10T07:33:12;3.85;;;2.03;;
54795;SDS011;40693;43.884;20.340;2022-07-10T07:35:41;2.13;;;1.63;;
54795;SDS011;40693;43.884;20.340;2022-07-10T07:38:08;3.40;;;2.03;;
54795;SDS011;40693;43.884;20.340;2022-07-10T07:40:34;4.50;;;2.20;;
54795;SDS011;40693;43.884;20.340;2022-07-10T07:43:05;3.15;;;1.50;;
54795;SDS011;40693;43.884;20.340;2022-07-10T07:45:31;5.07;;;2.13;;
54795;SDS011;40693;43.884;20.340;2022-07-10T07:47:58;2.45;;;1.65;;
54795;SDS011;40693;43.884;20.340;2022-07-10T07:50:29;3.65;;;2.08;;
54795;SDS011;40693;43.884;20.340;2022-07-10T07:52:57;2.55;;;1.90;;
54795;SDS011;40693;43.884;20.340;2022-07-10T07:55:30;3.22;;;2.20;;
54795;SDS011;40693;43.884;20.340;2022-07-10T07:57:56;4.75;;;1.92;;
54795;SDS011;40693;43.884;20.340;2022-07-10T08:00:23;5.70;;;3.42;;
54795;SDS011;40693;43.884;20.340;2022-07-10T08:02:50;4.90;;;2.20;;
54795;SDS011;40693;43.884;20.340;2022-07-10T08:05:17;3.72;;;2.72;;
54795;SDS011;40693;43.884;20.340;2022-07-10T08:07:44;6.05;;;2.47;;
54795;SDS011;40693;43.884;20.340;2022-07-10T08:10:15;4.13;;;2.50;;
54795;SDS011;40693;43.884;20.340;2022-07-10T08:12:43;3.60;;;2.20;;
54795;SDS011;40693;43.884;20.340;2022-07-10T08:15:11;3.58;;;2.10;;
54795;SDS011;40693;43.884;20.340;2022-07-10T08:17:38;5.82;;;2.28;;
54795;SDS011;40693;43.884;20.340;2022-07-10T08:20:05;3.90;;;2.13;;
54795;SDS011;40693;43.884;20.340;2022-07-10T08:22:32;8.10;;;1.95;;
54795;SDS011;40693;43.884;20.340;2022-07-10T08:24:58;6.95;;;2.15;;
54795;SDS011;40693;43.884;20.340;2022-07-10T08:27:24;3.92;;;2.25;;
54795;SDS011;40693;43.884;20.340;2022-07-10T08:29:50;5.07;;;2.10;;
54795;SDS011;40693;43.884;20.340;2022-07-10T08:32:16;2.78;;;2.10;;
54795;SDS011;40693;43.884;20.340;2022-07-10T08:34:42;3.90;;;2.35;;
54795;SDS011;40693;43.884;20.340;2022-07-10T08:37:07;3.08;;;2.22;;
54795;SDS011;40693;43.884;20.340;2022-07-10T08:39:33;3.58;;;2.15;;
54795;SDS011;40693;43.884;20.340;2022-07-10T08:41:59;3.83;;;2.22;;
54795;SDS011;40693;43.884;20.340;2022-07-10T08:44:26;4.32;;;3.05;;
54795;SDS011;40693;43.884;20.340;2022-07-10T08:46:53;3.58;;;2.30;;
54795;SDS011;40693;43.884;20.340;2022-07-10T08:49:19;3.38;;;2.00;;
54795;SDS011;40693;43.884;20.340;2022-07-10T08:52:08;4.68;;;2.20;;
54795;SDS011;40693;43.884;20.340;2022-07-10T08:54:37;4.10;;;2.13;;
54795;SDS011;40693;43.884;20.340;2022-07-10T08:57:04;3.35;;;1.90;;
54795;SDS011;40693;43.884;20.340;2022-07-10T08:59:30;4.10;;;2.38;;
54795;SDS011;40693;43.884;20.340;2022-07-10T09:01:57;5.68;;;2.25;;
54795;SDS011;40693;43.884;20.340;2022-07-10T09:04:25;3.70;;;2.20;;
54795;SDS011;40693;43.884;20.340;2022-07-10T09:06:52;4.75;;;2.55;;
54795;SDS011;40693;43.884;20.340;2022-07-10T09:09:19;4.07;;;2.30;;
54795;SDS011;40693;43.884;20.340;2022-07-10T09:11:45;4.10;;;2.58;;
54795;SDS011;40693;43.884;20.340;2022-07-10T09:14:13;3.75;;;2.13;;
54795;SDS011;40693;43.884;20.340;2022-07-10T09:16:42;3.05;;;2.17;;
54795;SDS011;40693;43.884;20.340;2022-07-10T09:21:48;3.65;;;2.08;;
54795;SDS011;40693;43.884;20.340;2022-07-10T09:24:16;5.68;;;2.05;;
54795;SDS011;40693;43.884;20.340;2022-07-10T09:26:46;4.47;;;2.05;;
54795;SDS011;40693;43.884;20.340;2022-07-10T09:29:19;3.70;;;2.25;;
54795;SDS011;40693;43.884;20.340;2022-07-10T09:31:48;3.60;;;2.00;;
54795;SDS011;40693;43.884;20.340;2022-07-10T09:44:58;3.38;;;1.60;;
54795;SDS011;40693;43.884;20.340;2022-07-10T09:47:41;1.90;;;1.73;;
54795;SDS011;40693;43.884;20.340;2022-07-10T09:55:26;8.60;;;4.18;;
54795;SDS011;40693;43.884;20.340;2022-07-10T09:57:55;3.53;;;1.40;;
54795;SDS011;40693;43.884;20.340;2022-07-10T10:00:46;2.83;;;1.48;;
54795;SDS011;40693;43.884;20.340;2022-07-10T10:03:13;5.45;;;2.70;;
54795;SDS011;40693;43.884;20.340;2022-07-10T10:05:44;4.35;;;1.67;;
54795;SDS011;40693;43.884;20.340;2022-07-10T10:08:22;3.10;;;1.90;;
54795;SDS011;40693;43.884;20.340;2022-07-10T10:10:50;4.82;;;1.95;;
54795;SDS011;40693;43.884;20.340;2022-07-10T10:13:20;5.40;;;1.20;;
54795;SDS011;40693;43.884;20.340;2022-07-10T10:15:48;3.10;;;1.40;;
54795;SDS011;40693;43.884;20.340;2022-07-10T10:18:19;2.67;;;1.63;;
54795;SDS011;40693;43.884;20.340;2022-07-10T10:20:50;4.82;;;1.75;;
54795;SDS011;40693;43.884;20.340;2022-07-10T10:23:21;3.40;;;1.17;;
54795;SDS011;40693;43.884;20.340;2022-07-10T10:25:49;1.67;;;1.10;;
54795;SDS011;40693;43.884;20.340;2022-07-10T10:28:16;3.08;;;1.27;;
54795;SDS011;40693;43.884;20.340;2022-07-10T10:30:48;2.63;;;1.10;;
54795;SDS011;40693;43.884;20.340;2022-07-10T10:36:08;4.75;;;1.95;;
54795;SDS011;40693;43.884;20.340;2022-07-10T10:41:25;1.90;;;1.38;;
54795;SDS011;40693;43.884;20.340;2022-07-10T10:46:33;3.08;;;1.20;;
54795;SDS011;40693;43.884;20.340;2022-07-10T10:49:05;5.63;;;2.38;;
54795;SDS011;40693;43.884;20.340;2022-07-10T10:54:23;3.17;;;2.10;;
54795;SDS011;40693;43.884;20.340;2022-07-10T10:57:11;2.15;;;1.25;;
54795;SDS011;40693;43.884;20.340;2022-07-10T10:59:48;3.17;;;2.10;;
54795;SDS011;40693;43.884;20.340;2022-07-10T11:04:49;5.43;;;2.65;;
54795;SDS011;40693;43.884;20.340;2022-07-10T11:13:06;2.50;;;1.10;;
54795;SDS011;40693;43.884;20.340;2022-07-10T11:15:42;1.73;;;0.90;;
54795;SDS011;40693;43.884;20.340;2022-07-10T11:18:11;1.63;;;0.93;;
54795;SDS011;40693;43.884;20.340;2022-07-10T11:20:54;2.78;;;1.30;;
54795;SDS011;40693;43.884;20.340;2022-07-10T11:23:35;1.35;;;1.05;;
54795;SDS011;40693;43.884;20.340;2022-07-10T11:26:34;5.40;;;1.55;;
54795;SDS011;40693;43.884;20.340;2022-07-10T11:29:03;3.55;;;1.55;;
54795;SDS011;40693;43.884;20.340;2022-07-10T11:31:33;2.78;;;1.30;;
54795;SDS011;40693;43.884;20.340;2022-07-10T11:34:03;2.22;;;1.20;;
54795;SDS011;40693;43.884;20.340;2022-07-10T11:36:29;1.95;;;1.15;;
54795;SDS011;40693;43.884;20.340;2022-07-10T11:41:24;1.70;;;1.10;;
54795;SDS011;40693;43.884;20.340;2022-07-10T11:43:53;2.20;;;0.82;;
54795;SDS011;40693;43.884;20.340;2022-07-10T11:46:21;3.08;;;1.00;;
54795;SDS011;40693;43.884;20.340;2022-07-10T11:48:48;0.90;;;0.85;;
54795;SDS011;40693;43.884;20.340;2022-07-10T11:51:24;1.10;;;0.98;;
54795;SDS011;40693;43.884;20.340;2022-07-10T11:53:55;1.15;;;1.00;;
54795;SDS011;40693;43.884;20.340;2022-07-10T11:56:23;2.20;;;1.08;;
54795;SDS011;40693;43.884;20.340;2022-07-10T11:58:56;3.17;;;1.38;;
54795;SDS011;40693;43.884;20.340;2022-07-10T12:01:24;4.18;;;1.20;;
54795;SDS011;40693;43.884;20.340;2022-07-10T12:03:54;1.42;;;1.00;;
54795;SDS011;40693;43.884;20.340;2022-07-10T12:06:23;3.03;;;1.08;;
54795;SDS011;40693;43.884;20.340;2022-07-10T12:08:50;1.20;;;1.00;;
54795;SDS011;40693;43.884;20.340;2022-07-10T12:11:16;3.05;;;2.10;;
54795;SDS011;40693;43.884;20.340;2022-07-10T12:13:46;2.35;;;1.05;;
54795;SDS011;40693;43.884;20.340;2022-07-10T12:16:13;2.47;;;0.93;;
54795;SDS011;40693;43.884;20.340;2022-07-10T12:18:40;2.90;;;1.08;;
54795;SDS011;40693;43.884;20.340;2022-07-10T12:21:07;0.98;;;0.95;;
54795;SDS011;40693;43.884;20.340;2022-07-10T12:23:34;2.70;;;1.23;;
54795;SDS011;40693;43.884;20.340;2022-07-10T12:26:03;3.17;;;1.00;;
54795;SDS011;40693;43.884;20.340;2022-07-10T12:28:29;1.73;;;0.90;;
54795;SDS011;40693;43.884;20.340;2022-07-10T12:30:55;1.90;;;1.13;;
54795;SDS011;40693;43.884;20.340;2022-07-10T12:33:22;2.00;;;1.08;;
54795;SDS011;40693;43.884;20.340;2022-07-10T12:38:22;11.45;;;3.33;;
54795;SDS011;40693;43.884;20.340;2022-07-10T12:40:50;2.60;;;1.27;;
54795;SDS011;40693;43.884;20.340;2022-07-10T12:43:30;3.30;;;0.80;;
54795;SDS011;40693;43.884;20.340;2022-07-10T12:49:02;2.45;;;0.70;;
54795;SDS011;40693;43.884;20.340;2022-07-10T12:51:30;3.55;;;0.95;;
54795;SDS011;40693;43.884;20.340;2022-07-10T12:54:30;1.48;;;0.80;;
54795;SDS011;40693;43.884;20.340;2022-07-10T12:56:58;3.60;;;1.02;;
54795;SDS011;40693;43.884;20.340;2022-07-10T12:59:24;4.60;;;1.10;;
54795;SDS011;40693;43.884;20.340;2022-07-10T13:01:49;6.10;;;1.00;;
54795;SDS011;40693;43.884;20.340;2022-07-10T13:04:22;1.67;;;1.00;;
54795;SDS011;40693;43.884;20.340;2022-07-10T13:06:49;1.30;;;0.90;;
54795;SDS011;40693;43.884;20.340;2022-07-10T13:09:22;1.98;;;0.90;;
54795;SDS011;40693;43.884;20.340;2022-07-10T13:11:53;2.05;;;0.82;;
54795;SDS011;40693;43.884;20.340;2022-07-10T13:14:19;3.28;;;1.00;;
54795;SDS011;40693;43.884;20.340;2022-07-10T13:16:46;1.52;;;0.95;;
54795;SDS011;40693;43.884;20.340;2022-07-10T13:19:12;1.77;;;1.10;;
54795;SDS011;40693;43.884;20.340;2022-07-10T13:21:40;2.38;;;0.80;;
54795;SDS011;40693;43.884;20.340;2022-07-10T13:24:06;1.40;;;1.05;;
54795;SDS011;40693;43.884;20.340;2022-07-10T13:26:32;1.35;;;0.95;;
54795;SDS011;40693;43.884;20.340;2022-07-10T13:28:58;0.80;;;0.80;;
54795;SDS011;40693;43.884;20.340;2022-07-10T13:31:24;1.13;;;0.63;;
54795;SDS011;40693;43.884;20.340;2022-07-10T13:33:50;2.20;;;1.00;;
54795;SDS011;40693;43.884;20.340;2022-07-10T13:36:16;1.85;;;0.90;;
54795;SDS011;40693;43.884;20.340;2022-07-10T13:38:42;2.35;;;1.30;;
54795;SDS011;40693;43.884;20.340;2022-07-10T13:41:08;1.00;;;0.90;;
54795;SDS011;40693;43.884;20.340;2022-07-10T13:43:34;0.70;;;0.70;;
54795;SDS011;40693;43.884;20.340;2022-07-10T13:46:00;1.42;;;1.00;;
54795;SDS011;40693;43.884;20.340;2022-07-10T13:48:27;1.38;;;0.90;;
54795;SDS011;40693;43.884;20.340;2022-07-10T13:50:56;1.70;;;1.08;;
54795;SDS011;40693;43.884;20.340;2022-07-10T13:53:22;1.42;;;0.95;;
54795;SDS011;40693;43.884;20.340;2022-07-10T13:55:48;1.52;;;0.90;;
54795;SDS011;40693;43.884;20.340;2022-07-10T13:58:15;5.97;;;1.45;;
54795;SDS011;40693;43.884;20.340;2022-07-10T14:00:41;1.30;;;1.13;;
54795;SDS011;40693;43.884;20.340;2022-07-10T14:03:07;1.50;;;0.90;;
54795;SDS011;40693;43.884;20.340;2022-07-10T14:05:34;3.35;;;1.13;;
54795;SDS011;40693;43.884;20.340;2022-07-10T14:08:00;0.70;;;0.70;;
54795;SDS011;40693;43.884;20.340;2022-07-10T14:10:26;2.90;;;1.15;;
54795;SDS011;40693;43.884;20.340;2022-07-10T14:12:55;2.88;;;1.02;;
54795;SDS011;40693;43.884;20.340;2022-07-10T14:15:21;1.85;;;0.90;;
54795;SDS011;40693;43.884;20.340;2022-07-10T14:17:47;4.78;;;1.17;;
54795;SDS011;40693;43.884;20.340;2022-07-10T14:20:13;3.80;;;1.20;;
54795;SDS011;40693;43.884;20.340;2022-07-10T14:22:39;4.80;;;1.20;;
54795;SDS011;40693;43.884;20.340;2022-07-10T14:25:05;1.40;;;0.90;;
54795;SDS011;40693;43.884;20.340;2022-07-10T14:27:33;1.08;;;0.88;;
54795;SDS011;40693;43.884;20.340;2022-07-10T14:29:59;2.80;;;1.20;;
54795;SDS011;40693;43.884;20.340;2022-07-10T14:32:25;2.03;;;1.00;;
54795;SDS011;40693;43.884;20.340;2022-07-10T14:34:51;1.15;;;0.70;;
54795;SDS011;40693;43.884;20.340;2022-07-10T14:37:17;2.72;;;0.85;;
54795;SDS011;40693;43.884;20.340;2022-07-10T14:39:43;1.42;;;0.98;;
54795;SDS011;40693;43.884;20.340;2022-07-10T14:42:11;4.20;;;1.20;;
54795;SDS011;40693;43.884;20.340;2022-07-10T14:44:37;2.05;;;1.10;;
54795;SDS011;40693;43.884;20.340;2022-07-10T14:47:03;1.35;;;0.90;;
54795;SDS011;40693;43.884;20.340;2022-07-10T14:49:29;2.38;;;1.38;;
54795;SDS011;40693;43.884;20.340;2022-07-10T14:51:54;1.88;;;1.10;;
54795;SDS011;40693;43.884;20.340;2022-07-10T14:54:20;3.22;;;2.70;;
54795;SDS011;40693;43.884;20.340;2022-07-10T14:56:46;2.83;;;1.05;;
54795;SDS011;40693;43.884;20.340;2022-07-10T14:59:12;1.30;;;1.00;;
54795;SDS011;40693;43.884;20.340;2022-07-10T15:01:38;0.98;;;0.98;;
54795;SDS011;40693;43.884;20.340;2022-07-10T15:04:07;2.67;;;1.10;;
54795;SDS011;40693;43.884;20.340;2022-07-10T15:06:32;5.70;;;2.20;;
54795;SDS011;40693;43.884;20.340;2022-07-10T15:08:58;3.65;;;1.58;;
54795;SDS011;40693;43.884;20.340;2022-07-10T15:11:24;2.55;;;0.80;;
54795;SDS011;40693;43.884;20.340;2022-07-10T15:13:51;0.90;;;0.90;;
54795;SDS011;40693;43.884;20.340;2022-07-10T15:16:23;1.95;;;1.05;;
54795;SDS011;40693;43.884;20.340;2022-07-10T15:18:53;1.80;;;0.88;;
54795;SDS011;40693;43.884;20.340;2022-07-10T15:21:18;1.90;;;1.00;;